Flight Track Log - Related Links

Times and Time Zones

All times are in EDT time to prevent confusion due to time zone crossing. See the AAY883 flight status page for this flight to view local times or setup timezone preferences in your user account.

Time Position Orientation Groundspeed Altitude Reporting Facility
EDT Latitude Longitude Course Direction KTS MPH feet Rate Location/Type
Mon 06:13:55 PM 42.8833 -85.4850 180° South 168 193 31,000  Level Chicago Center
Mon 06:14:56 PM 42.8439 -85.4467 145° Southeast 238 274 5,400 -11,366 Descending Chicago Center
Mon 06:15:58 PM 42.7756 -85.4644 191° South 245 282 7,700 2,160 Climbing Chicago Center
Mon 06:17:01 PM 42.7031 -85.4806 189° South 260 299 9,900 1,488 Climbing Chicago Center
Mon 06:18:03 PM 42.6319 -85.5269 206° Southwest 277 319 10,800 1,161 Climbing Chicago Center
Mon 06:19:00 PM 42.3433 -85.3994 180° South  Level Estimated
Mon 06:19:05 PM 42.5469 -85.5844 206° Southwest 335 386 12,300  Level Chicago Center
Mon 06:20:07 PM 42.4244 -85.6031 186° South 376 433 15,500 2,710 Climbing Chicago Center
Mon 06:21:09 PM 42.3208 -85.5711 167° South 381 438 17,900 2,274 Climbing Chicago Center
Mon 06:22:11 PM 42.2139 -85.5411 168° South 391 450 20,200 2,371 Climbing Chicago Center
Mon 06:23:13 PM 42.1069 -85.5092 168° South 393 452 22,800 1,645 Climbing Chicago Center
Mon 06:24:15 PM 41.9875 -85.4750 168° South 394 453 23,600 1,113 Climbing Chicago Center
Mon 06:25:17 PM 41.8733 -85.4425 168° South 413 475 25,100 1,440 Climbing Chicago Center
Mon 06:26:20 PM 41.7625 -85.4100 168° South 411 473 26,600 1,344 Climbing Chicago Center
Mon 06:27:22 PM 41.6408 -85.3747 168° South 410 472 27,900 1,306 Climbing Chicago Center
Mon 06:28:24 PM 41.5308 -85.3425 168° South 409 471 29,300 1,355 Climbing Chicago Center
Mon 06:29:26 PM 41.4242 -85.3117 168° South 398 458 30,700 823 Climbing Chicago Center
Mon 06:30:28 PM 41.3206 -85.2814 168° South 387 445 31,000 145 Climbing Chicago Center
Mon 06:31:30 PM 41.1967 -85.2464 168° South 381 438 31,000  Level Chicago Center
Mon 06:32:32 PM 41.0917 -85.2156 168° South 382 440 31,000  Level Chicago Center
Mon 06:33:34 PM 40.9867 -85.1872 168° South 384 442 31,000  Level Chicago Center
Mon 06:34:36 PM 40.8817 -85.1786 176° South 379 436 31,000 384 Level Chicago Center
Mon 06:35:39 PM 40.7756 -85.1736 178° South 379 436 31,800 864 Climbing Chicago Center
Mon 06:36:41 PM 40.6717 -85.1692 178° South 378 435 32,800 581 Climbing Chicago Center
Mon 06:37:43 PM 40.5553 -85.1650 178° South 373 429 33,000 97 Climbing Chicago Center
Mon 06:38:45 PM 40.4500 -85.1592 178° South 374 430 33,000  Level Chicago Center
Mon 06:39:31 PM 40.3664 -85.1561 178° South 375 432 33,000  Level Indianapolis Center
Mon 06:40:33 PM 40.2603 -85.1511 178° South 376 433 33,000  Level Indianapolis Center
Mon 06:41:35 PM 40.1550 -85.1453 178° South 376 433 33,000  Level Indianapolis Center
Mon 06:42:37 PM 40.0489 -85.1403 178° South 377 434 33,000  Level Indianapolis Center
Mon 06:43:39 PM 39.9428 -85.1350 178° South 377 434 33,000  Level Indianapolis Center
Mon 06:44:41 PM 39.8147 -85.1286 178° South 378 435 33,000  Level Indianapolis Center
Mon 06:45:42 PM 39.7086 -85.1236 178° South 379 436 33,000  Level Indianapolis Center
Mon 06:46:44 PM 39.6022 -85.1181 178° South 379 436 33,000  Level Indianapolis Center
Mon 06:47:46 PM 39.4978 -85.1136 178° South 379 436 33,000  Level Indianapolis Center
Mon 06:48:48 PM 39.3922 -85.1094 178° South 379 436 33,000  Level Indianapolis Center
Mon 06:49:49 PM 39.2881 -85.1031 177° South 378 435 33,000  Level Indianapolis Center
Mon 06:50:51 PM 39.1847 -85.0983 178° South 375 432 33,000  Level Indianapolis Center
Mon 06:51:53 PM 39.0594 -85.0914 178° South 375 432 33,000  Level Indianapolis Center
Mon 06:52:54 PM 38.9547 -85.0872 178° South 375 432 33,000  Level Indianapolis Center
Mon 06:53:56 PM 38.8494 -85.0831 178° South 375 432 33,000  Level Indianapolis Center
Mon 06:54:58 PM 38.7431 -85.0769 177° South 377 434 33,000  Level Indianapolis Center
Mon 06:55:59 PM 38.6258 -85.0717 178° South 382 440 33,000  Level Indianapolis Center
Mon 06:57:01 PM 38.5181 -85.0675 178° South 385 443 33,000  Level Indianapolis Center
Mon 06:58:03 PM 38.4094 -85.0617 178° South 386 444 33,000  Level Indianapolis Center
Mon 06:59:04 PM 38.3000 -85.0578 178° South 387 445 33,000  Level Indianapolis Center
Mon 07:00:06 PM 38.1919 -85.0522 178° South 388 447 33,000  Level Indianapolis Center
Mon 07:01:07 PM 38.0836 -85.0483 178° South 388 447 33,000  Level Indianapolis Center
Mon 07:02:09 PM 37.9561 -85.0411 177° South 389 448 33,000  Level Indianapolis Center
Mon 07:03:10 PM 37.8461 -85.0375 179° South 390 449 33,000  Level Indianapolis Center
Mon 07:04:12 PM 37.7381 -85.0311 177° South 390 449 33,000  Level Indianapolis Center
Mon 07:05:13 PM 37.6294 -85.0275 178° South 390 449 33,000  Level Indianapolis Center
Mon 07:06:15 PM 37.5208 -85.0225 178° South 390 449 33,000  Level Indianapolis Center
Mon 07:07:17 PM 37.4119 -85.0181 178° South 390 449 33,000  Level Indianapolis Center
Mon 07:08:18 PM 37.3019 -85.0019 173° South 393 452 33,000  Level Indianapolis Center
Mon 07:09:20 PM 37.1703 -84.9808 173° South 405 466 33,000  Level Indianapolis Center
Mon 07:10:21 PM 37.0561 -84.9644 173° South 407 468 33,000  Level Indianapolis Center
Mon 07:11:23 PM 36.9522 -84.9467 172° South 409 471 33,000  Level Indianapolis Center
Mon 07:12:25 PM 36.8378 -84.9289 173° South 410 472 33,000  Level Indianapolis Center
Mon 07:13:26 PM 36.6997 -84.9072 173° South 411 473 33,000  Level Indianapolis Center
Mon 07:14:28 PM 36.5847 -84.8875 172° South 412 474 33,000  Level Indianapolis Center
Mon 07:15:29 PM 36.4708 -84.8700 173° South 412 474 33,000  Level Indianapolis Center
Mon 07:16:31 PM 36.3564 -84.8514 173° South 412 474 33,000  Level Indianapolis Center
Mon 07:17:33 PM 36.2419 -84.8333 173° South 412 474 33,000  Level Indianapolis Center
Mon 07:18:34 PM 36.1269 -84.8153 173° South 412 474 33,000  Level Indianapolis Center
Mon 07:19:36 PM 36.0114 -84.7967 173° South 413 475 33,000  Level Indianapolis Center
Mon 07:20:38 PM 35.8933 -84.7775 173° South 413 475 33,000  Level Indianapolis Center
Mon 07:21:39 PM 35.7733 -84.7600 173° South 418 481 33,000  Level Indianapolis Center
Mon 07:22:41 PM 35.6564 -84.7425 173° South 418 481 33,000  Level Indianapolis Center
Mon 07:23:42 PM 35.5411 -84.7253 173° South 417 480 33,000  Level Indianapolis Center
Mon 07:24:53 PM 35.3994 -84.7036 173° South 425 489 33,000  Level Atlanta Center
Mon 07:25:53 PM 35.2847 -84.6875 173° South 425 489 33,000  Level Atlanta Center
Mon 07:26:53 PM 35.1681 -84.6689 173° South 425 489 33,000  Level Atlanta Center
Mon 07:27:53 PM 35.0511 -84.6528 174° South 425 489 33,000  Level Atlanta Center
Mon 07:28:53 PM 34.9386 -84.6342 172° South 425 489 33,000  Level Atlanta Center
Mon 07:29:53 PM 34.8239 -84.6156 172° South 425 489 33,000  Level Atlanta Center
Mon 07:30:53 PM 34.7072 -84.5997 174° South 425 489 33,000  Level Atlanta Center
Mon 07:31:53 PM 34.5800 -84.5786 172° South 425 489 33,000  Level Atlanta Center
Mon 07:32:53 PM 34.4653 -84.5603 172° South 425 489 33,000  Level Atlanta Center
Mon 07:33:53 PM 34.3483 -84.5394 172° South 425 489 33,000  Level Atlanta Center
Mon 07:34:53 PM 34.2381 -84.4761 155° Southeast 425 489 33,000  Level Atlanta Center
Mon 07:35:53 PM 34.1444 -84.4003 146° Southeast 437 503 33,000  Level Atlanta Center
Mon 07:36:53 PM 34.0361 -84.3247 150° Southeast 446 513 33,000  Level Atlanta Center
Mon 07:37:53 PM 33.9339 -84.2442 147° Southeast 451 519 33,000  Level Atlanta Center
Mon 07:38:53 PM 33.8131 -84.1589 150° Southeast 454 522 33,000  Level Atlanta Center
Mon 07:39:53 PM 33.7067 -84.0889 151° Southeast 447 514 33,000  Level Atlanta Center
Mon 07:40:53 PM 33.5981 -84.0139 150° Southeast 442 509 33,000  Level Atlanta Center
Mon 07:41:53 PM 33.4917 -83.9417 150° Southeast 442 509 33,000  Level Atlanta Center
Mon 07:42:53 PM 33.3789 -83.8797 155° Southeast 437 503 33,000  Level Atlanta Center
Mon 07:43:53 PM 33.2639 -83.8300 160° South 437 503 33,000  Level Atlanta Center
Mon 07:44:53 PM 33.1428 -83.7981 168° South 442 509 33,000  Level Atlanta Center
Mon 07:45:53 PM 33.0258 -83.7836 174° South 433 498 33,000  Level Atlanta Center
Mon 07:46:53 PM 32.9069 -83.7567 169° South 433 498 33,000  Level Atlanta Center
Mon 07:47:53 PM 32.7878 -83.7200 165° South 433 498 33,000  Level Atlanta Center
Mon 07:48:53 PM 32.6667 -83.7206 180° South 438 504 33,000  Level Atlanta Center
Mon 07:49:53 PM 32.5436 -83.7283 183° South 438 504 33,000  Level Atlanta Center
Mon 07:50:53 PM 32.4203 -83.7361 183° South 438 504 33,000  Level Atlanta Center
Mon 07:52:47 PM 32.2011 -83.7494 183° South 440 506 33,000  Level Jacksonville Center
Mon 07:53:47 PM 32.0800 -83.7556 182° South 440 506 33,000 -350 Level Jacksonville Center
Mon 07:54:47 PM 31.9569 -83.7642 183° South 440 506 32,300 -950 Descending Jacksonville Center
Mon 07:55:47 PM 31.8231 -83.7678 181° South 440 506 31,100 -700 Descending Jacksonville Center
Mon 07:56:47 PM 31.7019 -83.7767 184° South 447 514 30,900 -50 Descending Jacksonville Center
Mon 07:57:47 PM 31.5703 -83.7900 185° South 452 520 31,000 50 Climbing Jacksonville Center
Mon 07:58:47 PM 31.4492 -83.7961 182° South 452 520 31,000  Level Jacksonville Center
Mon 07:59:47 PM 31.3261 -83.8022 182° South 447 514 31,000  Level Jacksonville Center
Mon 08:00:47 PM 31.2006 -83.8106 183° South 447 514 31,000  Level Jacksonville Center
Mon 08:01:47 PM 31.0775 -83.8167 182° South 447 514 31,000  Level Jacksonville Center
Mon 08:02:47 PM 30.9522 -83.8253 183° South 442 509 31,000  Level Jacksonville Center
Mon 08:03:47 PM 30.8289 -83.8311 182° South 447 514 31,000  Level Jacksonville Center
Mon 08:04:47 PM 30.7056 -83.8397 183° South 447 514 31,000  Level Jacksonville Center
Mon 08:05:47 PM 30.5825 -83.8481 183° South 447 514 31,000 -50 Level Jacksonville Center
Mon 08:06:47 PM 30.4592 -83.8542 182° South 438 504 30,900 -50 Descending Jacksonville Center
Mon 08:07:47 PM 30.3361 -83.8361 173° South 444 511 30,900  Level Jacksonville Center
Mon 08:08:47 PM 30.2111 -83.7989 166° South 444 511 30,900  Level Jacksonville Center
Mon 08:09:47 PM 30.0861 -83.7639 166° South 455 524 30,900  Level Jacksonville Center
Mon 08:10:47 PM 29.9631 -83.7244 164° South 455 524 30,900  Level Jacksonville Center
Mon 08:11:47 PM 29.8361 -83.6900 167° South 461 531 30,900  Level Jacksonville Center
Mon 08:12:47 PM 29.7131 -83.6553 166° South 461 531 30,900  Level Jacksonville Center
Mon 08:13:47 PM 29.5858 -83.6186 166° South 467 537 30,900 -350 Level Jacksonville Center
Mon 08:14:47 PM 29.4631 -83.5794 164° South 467 537 30,200 -1,050 Descending Jacksonville Center
Mon 08:15:47 PM 29.3442 -83.5453 166° South 462 532 28,800 -1,250 Descending Jacksonville Center
Mon 08:16:47 PM 29.2253 -83.5089 165° South 450 518 27,700 -1,050 Descending Jacksonville Center
Mon 08:17:47 PM 29.1131 -83.4392 152° Southeast 445 512 26,700 -1,000 Descending Jacksonville Center
Mon 08:18:47 PM 29.0047 -83.3722 152° Southeast 445 512 25,700 -1,000 Descending Jacksonville Center
Mon 08:19:47 PM 28.8944 -83.3006 150° Southeast 445 512 24,700 -2,515 Descending Jacksonville Center
Mon 08:22:05 PM 28.6500 -83.1500 152° Southeast 440 506 17,400 -2,875 Descending Tampa TRACON
Mon 08:22:59 PM 28.5667 -83.0833 145° Southeast 405 466 15,500 -1,842 Descending Tampa TRACON
Mon 08:23:59 PM 28.4667 -83.0333 156° South 360 414 13,900 -1,700 Descending Tampa TRACON
Mon 08:24:59 PM 28.3833 -82.9667 145° Southeast 339 390 12,100 -1,450 Descending Tampa TRACON
Mon 08:25:59 PM 28.3167 -82.9167 147° Southeast 291 335 11,000 -1,476 Descending Tampa TRACON
Mon 08:27:05 PM 28.2500 -82.8667 147° Southeast 256 295 9,000 -2,095 Descending Tampa TRACON
Mon 08:28:05 PM 28.1833 -82.8333 156° South 254 292 6,600 -2,158 Descending Tampa TRACON
Mon 08:28:59 PM 28.1333 -82.8000 150° Southeast 250 288 4,900 -1,421 Descending Tampa TRACON
Mon 08:29:59 PM 28.0833 -82.7667 150° Southeast 184 212 3,900 -1,158 Descending Tampa TRACON
Mon 08:30:53 PM 28.0500 -82.7333 139° Southeast 167 192 2,700 -1,211 Descending Tampa TRACON
Mon 08:31:53 PM 28.0167 -82.7000 139° Southeast 168 193 1,600 -905 Descending Tampa TRACON
Mon 08:32:59 PM 27.9667 -82.7000 180° South 127 146 800 -727 Descending Tampa TRACON

Login

Don't have an account? Register now (free) for customized features, flight alerts, and more!